Time;durP1;ratioP1;P1;durP2;ratioP2;P2;SDS_P1;SDS_P2;PMS_P1;PMS_P2;Temp;Humidity;BMP_temperature;BMP_pressure;BME280_temperature;BME280_humidity;BME280_pressure;Samples;Min_cycle;Max_cycle;Signal;HPM_P1;HPM_P2
2022/03/17 00:01:26;;;;;;;52.53;18.55;;;;;;;29.20;66.37;100753.63;5079794;28;66021;-38
2022/03/17 00:03:57;;;;;;;38.35;17.38;;;;;;;29.47;66.17;100799.47;5075737;27;69620;-39
2022/03/17 00:06:28;;;;;;;27.55;17.63;;;;;;;29.53;66.89;100806.72;5073193;27;66249;-40
2022/03/17 00:09:00;;;;;;;36.83;17.10;;;;;;;29.59;67.09;100814.00;5068688;27;70371;-40
2022/03/17 00:11:31;;;;;;;23.35;16.35;;;;;;;29.67;68.16;100800.28;5081611;27;66210;-40
2022/03/17 00:14:02;;;;;;;26.60;16.23;;;;;;;29.72;67.21;100803.16;5075244;28;70409;-39
2022/03/17 00:16:34;;;;;;;29.55;15.32;;;;;;;29.73;66.34;100802.13;5075558;27;66071;-39
2022/03/17 00:19:07;;;;;;;22.85;15.38;;;;;;;29.75;65.70;100808.13;5086847;27;70115;-40
2022/03/17 00:21:40;;;;;;;26.33;15.95;;;;;;;29.82;66.02;100825.16;5084562;27;66913;-40
2022/03/17 00:24:11;;;;;;;22.17;15.23;;;;;;;29.86;66.27;100830.13;5065267;27;69212;-40
2022/03/17 00:26:42;;;;;;;16.73;14.00;;;;;;;29.90;65.50;100826.81;5072663;27;65542;-43
2022/03/17 00:29:16;;;;;;;24.75;13.80;;;;;;;29.91;66.23;100827.63;5048497;27;70478;-40
2022/03/17 00:31:47;;;;;;;27.63;14.13;;;;;;;29.95;65.89;100823.44;5068368;28;66482;-40
2022/03/17 00:34:18;;;;;;;21.67;13.88;;;;;;;29.97;65.61;100832.16;5067963;28;71330;-38
2022/03/17 00:36:50;;;;;;;19.60;12.23;;;;;;;29.96;64.20;100819.69;5062603;28;65970;-39
2022/03/17 00:39:21;;;;;;;17.63;10.93;;;;;;;30.12;62.33;100830.03;5076335;27;69873;-41
2022/03/17 00:41:52;;;;;;;13.17;10.60;;;;;;;30.24;61.57;100839.13;5073116;28;66807;-38
2022/03/17 00:44:23;;;;;;;17.33;10.70;;;;;;;29.95;61.58;100793.69;5075127;28;69410;-39
2022/03/17 00:46:55;;;;;;;13.18;10.80;;;;;;;30.35;61.55;100843.03;5066044;28;65390;-39
2022/03/17 00:49:26;;;;;;;12.10;10.05;;;;;;;30.42;61.21;100851.94;5089188;27;69994;-39
2022/03/17 00:51:57;;;;;;;13.57;10.65;;;;;;;30.49;60.47;100851.88;5067043;27;66855;-39
2022/03/17 00:54:28;;;;;;;11.85;10.65;;;;;;;30.54;60.50;100860.19;5110773;27;70503;-39
2022/03/17 00:56:58;;;;;;;12.13;9.75;;;;;;;30.59;60.63;100857.66;5089696;27;65024;-39
2022/03/17 00:59:29;;;;;;;11.23;10.13;;;;;;;30.61;60.12;100860.13;5081995;27;70050;-40
2022/03/17 01:02:00;;;;;;;10.05;9.15;;;;;;;30.64;60.15;100859.69;5085008;27;66815;-39
2022/03/17 01:04:32;;;;;;;10.63;9.60;;;;;;;30.70;59.49;100865.06;5094372;27;70274;-39
2022/03/17 01:07:04;;;;;;;12.02;10.27;;;;;;;30.68;59.50;100855.50;5065825;28;66412;-39
2022/03/17 01:09:36;;;;;;;10.77;9.83;;;;;;;30.78;59.40;100868.53;5088935;27;70185;-39
2022/03/17 01:12:07;;;;;;;10.35;9.43;;;;;;;30.47;59.09;100814.19;5065554;28;65802;-39
2022/03/17 01:14:38;;;;;;;10.02;9.05;;;;;;;30.75;58.99;100860.88;5081771;27;68478;-40
2022/03/17 01:17:10;;;;;;;13.80;9.98;;;;;;;30.87;58.42;100873.53;5090094;27;66384;-39
2022/03/17 01:19:42;;;;;;;9.90;9.10;;;;;;;30.90;58.79;100881.19;5061156;28;70214;-39
2022/03/17 01:22:13;;;;;;;9.97;8.27;;;;;;;30.84;58.60;100864.97;5061556;28;65344;-38
2022/03/17 01:24:46;;;;;;;10.65;9.60;;;;;;;30.89;58.68;100870.56;5072355;28;70094;-38
2022/03/17 01:27:20;;;;;;;9.82;8.85;;;;;;;30.99;58.38;100895.28;5073298;28;66690;-38
2022/03/17 01:29:52;;;;;;;10.02;8.55;;;;;;;31.01;58.10;100892.34;5080614;28;70124;-38
2022/03/17 01:32:24;;;;;;;;;;;;;;;30.68;59.46;100894.25;5081980;27;66706;-38
2022/03/17 01:34:55;;;;;;;8.77;8.13;;;;;;;31.00;58.57;100890.69;5093924;27;70589;-38
2022/03/17 01:37:27;;;;;;;9.88;8.95;;;;;;;31.06;57.96;100906.88;5068278;27;65057;-38
2022/03/17 01:39:58;;;;;;;9.50;8.80;;;;;;;31.07;58.24;100892.31;5074560;28;69449;-40
2022/03/17 01:42:29;;;;;;;10.85;9.75;;;;;;;31.11;57.96;100893.50;5059585;28;66746;-39
2022/03/17 01:45:00;;;;;;;12.15;8.70;;;;;;;31.15;57.76;100904.75;5075673;28;70133;-38
2022/03/17 01:47:32;;;;;;;9.18;8.30;;;;;;;31.19;57.72;100913.28;5080404;28;64764;-41
2022/03/17 01:50:10;;;;;;;;;;;;;;;30.86;58.79;100917.06;5078050;27;69687;-39
2022/03/17 01:52:42;;;;;;;8.82;8.00;;;;;;;31.20;57.40;100912.19;5071293;28;66311;-38
2022/03/17 01:55:17;;;;;;;10.05;8.48;;;;;;;30.87;57.61;100853.72;5065919;27;70056;-38
2022/03/17 01:57:48;;;;;;;9.35;8.38;;;;;;;31.27;57.41;100919.22;5069417;28;66173;-39
2022/03/17 02:00:21;;;;;;;9.65;8.40;;;;;;;31.29;57.06;100917.13;5077272;28;44190;-39
2022/03/17 02:02:53;;;;;;;9.23;8.50;;;;;;;31.31;56.97;100925.84;5060333;28;66176;-39
2022/03/17 02:05:24;;;;;;;9.10;8.27;;;;;;;31.12;57.10;100889.78;5059040;28;70728;-39
2022/03/17 02:07:55;;;;;;;11.93;9.10;;;;;;;31.37;56.51;100918.75;5067756;27;67094;-39
2022/03/17 02:10:26;;;;;;;9.57;8.70;;;;;;;31.39;56.18;100912.06;5076522;27;69790;-39
2022/03/17 02:13:10;;;;;;;11.30;9.85;;;;;;;31.08;56.33;100869.56;5042232;28;65588;-39
2022/03/17 02:15:41;;;;;;;9.10;8.38;;;;;;;31.33;56.24;100906.66;5073999;28;70460;-39
2022/03/17 02:18:16;;;;;;;9.48;8.68;;;;;;;31.45;56.15;100921.16;5069458;28;65602;-39
2022/03/17 02:20:47;;;;;;;9.05;8.27;;;;;;;31.46;56.06;100917.44;5075248;28;70252;-39
2022/03/17 02:26:07;;;;;;;9.60;8.73;;;;;;;31.50;56.11;100924.03;5080162;27;69245;-40
2022/03/17 02:28:43;;;;;;;10.60;8.52;;;;;;;31.54;56.22;100938.81;5059489;28;66230;-39
2022/03/17 02:31:14;;;;;;;14.50;8.57;;;;;;;31.56;55.66;100939.41;5061901;28;69018;-39
2022/03/17 02:33:45;;;;;;;9.98;9.25;;;;;;;31.59;55.41;100930.84;5080597;28;67309;-39
2022/03/17 02:36:16;;;;;;;9.60;8.77;;;;;;;31.58;55.85;100917.50;5077296;27;70157;-38
2022/03/17 02:38:47;;;;;;;9.45;8.48;;;;;;;31.67;55.50;100923.47;5068801;28;65690;-39
2022/03/17 02:41:23;;;;;;;9.52;8.68;;;;;;;31.60;55.17;100891.84;5063750;28;70859;-38
2022/03/17 02:43:54;;;;;;;9.70;8.80;;;;;;;31.68;55.42;100914.25;5070552;27;66614;-39
2022/03/17 02:46:28;;;;;;;9.95;9.05;;;;;;;31.67;54.95;100907.19;5072351;28;70116;-38
2022/03/17 02:48:59;;;;;;;10.10;9.30;;;;;;;31.78;55.09;100920.00;5068662;28;66524;-38
2022/03/17 02:51:31;;;;;;;;;;;;;;;31.45;55.20;100915.75;5064689;28;69418;-38
2022/03/17 02:54:02;;;;;;;9.77;8.77;;;;;;;31.79;54.72;100910.84;5079409;27;66895;-38
2022/03/17 02:56:34;;;;;;;10.25;9.30;;;;;;;31.80;54.56;100912.47;5045490;28;69822;-38
2022/03/17 02:59:04;;;;;;;11.00;8.93;;;;;;;31.82;54.62;100907.66;5066282;28;66328;-38
2022/03/17 03:01:35;;;;;;;10.38;9.38;;;;;;;31.91;54.36;100902.75;5074787;28;70182;-39
2022/03/17 03:04:06;;;;;;;9.00;8.25;;;;;;;31.82;54.57;100894.09;5064478;27;66918;-39
2022/03/17 03:06:37;;;;;;;10.90;9.80;;;;;;;31.91;54.39;100897.34;5079989;28;69529;-39
2022/03/17 03:09:08;;;;;;;11.37;9.47;;;;;;;31.97;54.12;100901.88;5077838;27;65202;-39
2022/03/17 03:11:39;;;;;;;9.73;8.98;;;;;;;31.99;54.34;100906.03;5065613;28;70265;-39
2022/03/17 03:14:10;;;;;;;9.98;9.00;;;;;;;32.02;54.09;100911.00;5073931;28;66556;-40
2022/03/17 03:16:40;;;;;;;10.25;9.15;;;;;;;32.00;54.00;100902.25;5067045;28;70104;-38
2022/03/17 03:19:11;;;;;;;10.20;9.50;;;;;;;32.07;53.92;100904.03;5076601;27;66773;-39
2022/03/17 03:21:46;;;;;;;11.13;10.18;;;;;;;32.11;53.96;100902.53;5067976;28;71461;-39
2022/03/17 03:24:17;;;;;;;10.70;9.80;;;;;;;32.11;53.57;100891.69;5063115;28;65721;-39
2022/03/17 03:26:48;;;;;;;11.43;10.40;;;;;;;32.14;54.04;100891.22;5074876;28;69192;-39
2022/03/17 03:29:28;;;;;;;10.00;9.25;;;;;;;32.19;53.77;100884.06;5077017;28;66424;-40
2022/03/17 03:32:02;;;;;;;11.65;9.75;;;;;;;31.98;53.34;100843.84;5062457;28;69201;-39
2022/03/17 03:34:34;;;;;;;9.98;9.32;;;;;;;31.92;53.67;100836.63;5076705;28;65943;-39
2022/03/17 03:37:23;;;;;;;10.75;9.88;;;;;;;32.28;53.39;100887.28;5074691;28;70224;-41
2022/03/17 03:39:56;;;;;;;11.27;10.48;;;;;;;32.27;53.13;100874.78;5073194;28;66535;-38
2022/03/17 03:42:27;;;;;;;13.02;11.43;;;;;;;32.21;53.40;100865.66;5075544;28;70381;-38
2022/03/17 03:44:58;;;;;;;11.57;10.43;;;;;;;32.34;52.95;100880.91;5071284;28;65853;-39
2022/03/17 03:47:29;;;;;;;11.75;10.80;;;;;;;32.36;52.93;100878.00;5064036;28;69574;-40
2022/03/17 03:50:01;;;;;;;11.25;10.40;;;;;;;32.40;52.85;100871.88;5075702;28;66014;-38
2022/03/17 03:52:32;;;;;;;10.88;10.00;;;;;;;32.40;52.62;100874.59;5066774;28;70189;-38
2022/03/17 03:55:03;;;;;;;11.60;10.68;;;;;;;32.39;52.50;100862.06;5077729;27;65359;-39
2022/03/17 03:57:34;;;;;;;12.10;11.00;;;;;;;32.46;52.66;100865.56;5078320;28;70086;-38
2022/03/17 04:03:16;;;;;;;12.75;11.50;;;;;;;32.55;52.52;100859.78;5065533;27;69638;-39
2022/03/17 04:05:46;;;;;;;12.82;11.73;;;;;;;32.48;52.27;100841.72;5070980;27;65856;-39
2022/03/17 04:08:17;;;;;;;12.82;11.70;;;;;;;32.60;52.40;100841.75;5060433;27;70330;-39
2022/03/17 04:10:48;;;;;;;12.77;11.87;;;;;;;32.61;52.27;100842.56;5063351;28;64763;-39
2022/03/17 04:13:19;;;;;;;13.13;12.07;;;;;;;32.59;52.47;100828.38;5073298;27;70218;-38
2022/03/17 04:15:50;;;;;;;13.02;11.75;;;;;;;32.67;52.48;100830.75;5072906;28;65735;-38
2022/03/17 04:18:20;;;;;;;12.65;11.68;;;;;;;32.69;52.18;100828.63;5069637;28;69935;-38
2022/03/17 04:20:51;;;;;;;13.60;12.30;;;;;;;32.70;52.03;100831.09;5082951;27;66597;-38
2022/03/17 04:23:22;;;;;;;12.55;11.57;;;;;;;32.72;52.26;100825.44;5079589;28;69864;-39
2022/03/17 04:25:53;;;;;;;13.95;12.65;;;;;;;32.71;52.35;100815.66;5082816;27;66688;-39
2022/03/17 04:28:24;;;;;;;14.55;13.20;;;;;;;32.53;52.04;100775.00;5080495;28;70487;-39
2022/03/17 04:30:54;;;;;;;13.45;12.25;;;;;;;32.74;52.00;100798.91;5077192;27;65712;-39
2022/03/17 04:33:25;;;;;;;13.90;12.70;;;;;;;32.71;52.10;100788.50;5075453;27;70621;-39
2022/03/17 04:35:56;;;;;;;14.13;12.82;;;;;;;32.77;52.05;100792.16;5079466;27;65220;-39
2022/03/17 04:38:27;;;;;;;15.50;12.65;;;;;;;32.79;51.87;100795.44;5073735;27;69908;-39
2022/03/17 04:40:57;;;;;;;14.38;13.18;;;;;;;32.78;52.19;100794.63;5075583;27;65534;-38
2022/03/17 04:43:28;;;;;;;12.73;11.75;;;;;;;32.78;51.89;100789.19;5077114;27;71143;-38
2022/03/17 04:46:00;;;;;;;13.98;12.77;;;;;;;32.75;51.99;100776.09;5079774;28;66299;-39
2022/03/17 04:48:31;;;;;;;14.52;13.02;;;;;;;32.75;51.96;100770.66;5080415;28;70391;-40
2022/03/17 04:51:04;;;;;;;14.20;13.03;;;;;;;32.85;51.94;100783.66;5081901;27;66248;-40
2022/03/17 04:53:42;;;;;;;13.40;12.27;;;;;;;32.87;52.01;100771.47;5064033;28;69969;-40
2022/03/17 04:56:16;;;;;;;16.90;13.68;;;;;;;32.72;51.58;100739.34;5080157;28;65377;-39
2022/03/17 04:58:47;;;;;;;15.00;13.55;;;;;;;32.92;51.92;100768.88;5079724;28;69620;-39
2022/03/17 05:01:18;;;;;;;14.20;12.82;;;;;;;32.92;51.67;100755.28;5079376;27;66526;-39
2022/03/17 05:03:50;;;;;;;14.50;13.20;;;;;;;32.94;51.74;100749.63;5066951;27;70985;-38
2022/03/17 05:06:21;;;;;;;15.17;13.77;;;;;;;32.92;51.51;100741.72;5072611;28;66610;-38
2022/03/17 05:08:51;;;;;;;15.18;13.65;;;;;;;32.98;51.64;100744.53;5076161;27;70462;-38
2022/03/17 05:11:22;;;;;;;15.70;13.48;;;;;;;32.97;51.72;100743.72;5066659;28;64761;-38
2022/03/17 05:13:52;;;;;;;14.52;13.45;;;;;;;33.01;51.60;100744.09;5082254;27;69782;-38
2022/03/17 05:16:24;;;;;;;14.73;13.38;;;;;;;33.01;51.65;100736.75;5067964;28;66038;-38
2022/03/17 05:18:55;;;;;;;15.97;14.57;;;;;;;33.00;51.56;100731.59;5080095;27;70126;-39
2022/03/17 05:21:26;;;;;;;15.30;13.80;;;;;;;33.05;51.41;100726.25;5062971;28;66239;-38
2022/03/17 05:23:57;;;;;;;14.85;13.48;;;;;;;33.03;51.47;100720.22;5067043;28;69209;-40
2022/03/17 05:26:28;;;;;;;15.13;13.60;;;;;;;33.11;51.34;100711.72;5073477;28;66481;-39
2022/03/17 05:28:59;;;;;;;14.63;13.43;;;;;;;33.01;51.30;100695.19;5073563;28;69991;-37
2022/03/17 05:31:30;;;;;;;15.25;13.82;;;;;;;33.18;51.24;100722.44;5066826;27;66581;-40
2022/03/17 05:34:01;;;;;;;15.27;13.88;;;;;;;33.20;51.06;100699.38;5068348;28;69503;-38
2022/03/17 05:36:32;;;;;;;16.17;14.15;;;;;;;33.08;51.22;100674.97;5065158;28;66315;-38
2022/03/17 05:39:02;;;;;;;14.50;13.40;;;;;;;33.20;51.11;100685.81;5068855;27;69512;-39
2022/03/17 05:41:33;;;;;;;16.53;14.57;;;;;;;33.23;51.16;100681.78;5073395;28;67996;-39
2022/03/17 05:44:04;;;;;;;13.63;12.73;;;;;;;33.27;51.06;100672.91;5070324;28;69755;-39
2022/03/17 05:46:35;;;;;;;14.60;13.53;;;;;;;33.25;51.11;100669.59;5077172;28;66196;-39
2022/03/17 05:49:06;;;;;;;14.02;12.93;;;;;;;33.22;51.01;100650.22;5070512;28;69733;-39
2022/03/17 05:51:37;;;;;;;15.85;13.88;;;;;;;33.31;50.79;100657.75;5075171;27;65690;-40
2022/03/17 05:54:10;;;;;;;14.63;13.30;;;;;;;33.29;50.82;100646.31;5075957;28;70143;-40
2022/03/17 05:56:40;;;;;;;15.25;14.00;;;;;;;33.37;50.75;100655.94;5068701;28;65667;-39
2022/03/17 05:59:11;;;;;;;15.73;14.18;;;;;;;33.41;50.94;100645.44;5079421;28;69498;-39
2022/03/17 06:01:42;;;;;;;14.55;13.45;;;;;;;33.39;50.79;100648.38;5074900;28;66141;-39
2022/03/17 06:04:33;;;;;;;14.93;13.75;;;;;;;33.12;50.83;100594.59;5066864;28;70091;-39
2022/03/17 06:07:04;;;;;;;15.02;13.65;;;;;;;33.41;50.61;100623.69;5066257;27;66799;-39
2022/03/17 06:09:34;;;;;;;14.15;13.20;;;;;;;33.44;50.63;100628.63;5064827;28;70569;-39
2022/03/17 06:12:06;;;;;;;15.55;14.27;;;;;;;33.44;50.69;100629.47;5081067;27;66273;-39
2022/03/17 06:14:37;;;;;;;;;;;;;;;33.13;51.37;100628.06;5063455;28;70093;-39
2022/03/17 06:17:09;;;;;;;15.05;13.65;;;;;;;33.43;50.76;100626.97;5067815;27;66612;-39
2022/03/17 06:19:40;;;;;;;14.55;13.50;;;;;;;33.47;50.62;100615.38;5087378;27;70549;-39
2022/03/17 06:22:11;;;;;;;15.32;13.98;;;;;;;33.38;50.68;100592.38;5089895;27;65970;-39
2022/03/17 06:24:42;;;;;;;15.45;14.02;;;;;;;33.46;50.59;100591.13;5087993;27;70766;-39
2022/03/17 06:27:12;;;;;;;15.07;13.93;;;;;;;33.49;50.44;100593.34;5090423;27;66302;-39
2022/03/17 06:29:43;;;;;;;14.65;13.52;;;;;;;33.54;50.43;100590.75;5085866;27;69890;-39
2022/03/17 06:32:14;;;;;;;14.43;13.20;;;;;;;33.42;50.24;100571.75;5088524;27;66190;-41
2022/03/17 06:34:44;;;;;;;15.52;14.13;;;;;;;33.58;50.37;100581.06;5075452;28;69426;-40
2022/03/17 06:37:15;;;;;;;15.60;14.32;;;;;;;33.57;50.30;100582.09;5074776;27;66621;-39
2022/03/17 06:39:46;;;;;;;15.35;14.10;;;;;;;33.54;50.41;100564.41;5093008;27;70244;-39
2022/03/17 06:42:17;;;;;;;15.98;14.57;;;;;;;33.61;50.54;100568.88;5080604;27;66691;-39
2022/03/17 06:44:48;;;;;;;15.35;14.27;;;;;;;33.62;50.38;100568.59;5090354;27;71131;-39
2022/03/17 06:47:22;;;;;;;14.60;13.45;;;;;;;33.50;50.44;100541.44;5086088;27;65738;-38
2022/03/17 06:49:53;;;;;;;14.77;13.73;;;;;;;33.49;50.34;100539.81;5063962;27;69867;-38
2022/03/17 06:52:24;;;;;;;14.50;13.50;;;;;;;33.66;50.15;100558.88;5070732;28;65083;-39
2022/03/17 06:54:54;;;;;;;15.57;14.43;;;;;;;33.69;50.17;100544.78;5074810;28;70091;-38
2022/03/17 06:57:25;;;;;;;15.45;14.27;;;;;;;33.58;49.98;100532.09;5080264;27;66849;-38
2022/03/17 06:59:56;;;;;;;14.88;13.85;;;;;;;33.67;50.04;100530.59;5086409;27;70005;-39
2022/03/17 07:02:27;;;;;;;14.07;13.20;;;;;;;33.68;50.26;100520.53;5088323;27;67796;-39
2022/03/17 07:04:58;;;;;;;14.38;13.32;;;;;;;33.61;50.31;100507.13;5079280;27;70304;-37
2022/03/17 07:07:29;;;;;;;15.10;13.80;;;;;;;33.69;50.19;100528.47;5084047;27;67340;-38
2022/03/17 07:10:00;;;;;;;15.02;13.75;;;;;;;33.72;49.98;100516.28;5061432;27;69432;-38
2022/03/17 07:12:30;;;;;;;14.90;13.73;;;;;;;33.77;50.21;100519.91;5075099;27;66301;-39
2022/03/17 07:15:01;;;;;;;15.60;14.32;;;;;;;33.81;49.91;100512.06;5071340;27;69797;-39
2022/03/17 07:17:42;;;;;;;15.27;13.98;;;;;;;33.71;49.79;100482.81;5078495;27;65345;-39
2022/03/17 07:20:16;;;;;;;14.10;12.98;;;;;;;33.88;49.90;100503.69;5068001;27;69294;-39
2022/03/17 07:22:49;;;;;;;14.13;13.05;;;;;;;33.90;49.83;100496.13;5070328;28;64493;-39
2022/03/17 07:25:19;;;;;;;14.88;13.68;;;;;;;33.93;50.07;100501.06;5069652;27;69523;-39
2022/03/17 07:27:50;;;;;;;14.25;13.23;;;;;;;33.99;49.70;100494.59;5075265;27;65541;-39
2022/03/17 07:30:23;;;;;;;15.93;14.38;;;;;;;33.89;49.58;100478.16;5076477;27;69815;-39
2022/03/17 07:32:59;;;;;;;15.40;14.02;;;;;;;34.05;49.63;100488.22;5044696;28;66043;-38
2022/03/17 07:35:29;;;;;;;14.30;13.30;;;;;;;34.05;49.58;100473.78;5086579;27;70463;-38
2022/03/17 07:38:02;;;;;;;15.57;14.15;;;;;;;34.10;49.50;100469.25;5077241;27;66167;-39
2022/03/17 07:40:33;;;;;;;14.82;13.68;;;;;;;34.13;49.34;100473.31;5064701;27;69794;-38
2022/03/17 07:43:04;;;;;;;15.80;14.27;;;;;;;34.16;49.44;100470.94;5084886;27;66729;-39
2022/03/17 07:45:55;;;;;;;14.88;13.77;;;;;;;34.19;49.46;100467.72;5080760;28;70424;-39
2022/03/17 07:48:44;;;;;;;13.63;12.47;;;;;;;34.15;49.40;100450.22;5065056;27;66237;-38
2022/03/17 07:51:24;;;;;;;13.60;12.75;;;;;;;34.25;49.55;100455.81;5068982;27;70148;-38
2022/03/17 07:53:56;;;;;;;13.90;12.80;;;;;;;34.30;49.25;100451.47;5076762;28;66021;-38
2022/03/17 07:56:27;;;;;;;13.07;12.27;;;;;;;34.31;48.92;100434.09;5068026;28;70681;-39
2022/03/17 07:58:59;;;;;;;13.80;12.70;;;;;;;34.40;49.04;100435.28;5062662;28;66264;-38
2022/03/17 08:01:32;;;;;;;14.02;13.02;;;;;;;34.45;48.96;100432.63;5089499;27;69914;-38
2022/03/17 08:04:03;;;;;;;14.68;13.30;;;;;;;34.45;49.00;100421.72;5068815;28;65442;-38
2022/03/17 08:06:35;;;;;;;14.00;13.00;;;;;;;34.50;48.94;100424.50;5080195;28;70174;-37
2022/03/17 08:09:06;;;;;;;14.73;13.50;;;;;;;34.55;48.96;100421.84;5076904;28;65832;-39
2022/03/17 08:11:37;;;;;;;14.10;12.77;;;;;;;34.53;49.01;100401.38;5071332;28;69454;-40
2022/03/17 08:14:08;;;;;;;14.10;12.98;;;;;;;34.61;49.03;100403.69;5068801;27;65314;-39
2022/03/17 08:16:39;;;;;;;14.05;12.95;;;;;;;34.63;48.87;100393.31;5078958;28;70098;-40
2022/03/17 08:19:14;;;;;;;13.52;12.68;;;;;;;34.55;48.28;100383.72;5066523;27;65869;-39
2022/03/17 08:21:46;;;;;;;14.07;12.98;;;;;;;34.70;48.26;100400.22;5062048;28;69999;-40
2022/03/17 08:24:17;;;;;;;13.93;12.90;;;;;;;34.74;48.29;100392.34;5077257;28;67699;-40
2022/03/17 08:26:49;;;;;;;14.13;13.02;;;;;;;34.74;48.54;100386.06;5074063;27;70642;-40
2022/03/17 08:29:20;;;;;;;13.37;12.53;;;;;;;34.81;47.96;100384.78;5076234;28;65784;-39
2022/03/17 08:31:50;;;;;;;12.77;12.07;;;;;;;34.85;48.22;100383.22;5079522;28;71985;-39
2022/03/17 08:34:21;;;;;;;13.25;12.45;;;;;;;34.79;48.45;100356.16;5089208;27;65228;-39
2022/03/17 08:36:56;;;;;;;14.30;12.93;;;;;;;34.69;47.90;100338.66;5073333;27;69779;-39
2022/03/17 08:39:27;;;;;;;14.35;13.45;;;;;;;34.93;48.03;100377.25;5076998;28;65696;-39
2022/03/17 08:41:58;;;;;;;14.27;13.27;;;;;;;34.94;48.24;100364.47;5061555;28;69113;-39
2022/03/17 08:44:29;;;;;;;13.80;12.77;;;;;;;34.97;48.19;100363.94;5074481;28;66879;-39
2022/03/17 08:49:51;;;;;;;14.50;13.40;;;;;;;35.00;47.91;100357.16;5073085;28;65274;-39
2022/03/17 08:52:22;;;;;;;14.52;13.25;;;;;;;34.99;48.30;100348.13;5069910;27;70352;-39
2022/03/17 08:54:54;;;;;;;14.15;13.25;;;;;;;35.12;47.52;100358.63;5080816;28;65247;-39
2022/03/17 08:57:25;;;;;;;14.20;13.25;;;;;;;35.17;47.69;100359.75;5073241;27;69402;-39
2022/03/17 08:59:56;;;;;;;14.67;13.40;;;;;;;35.18;47.84;100359.47;5059956;28;66193;-39
2022/03/17 09:02:27;;;;;;;14.27;13.00;;;;;;;35.19;47.69;100354.84;5063075;27;69340;-39
2022/03/17 09:04:58;;;;;;;14.88;13.32;;;;;;;35.25;47.80;100357.38;5070394;28;66732;-38
2022/03/17 09:07:30;;;;;;;14.00;13.20;;;;;;;35.23;47.31;100351.34;5066370;28;70389;-40
2022/03/17 09:10:01;;;;;;;14.55;13.55;;;;;;;35.28;47.44;100353.28;5068175;28;66287;-40
2022/03/17 09:12:33;;;;;;;15.27;14.13;;;;;;;35.32;47.43;100348.94;5061695;28;70374;-39
2022/03/17 09:15:05;;;;;;;14.70;13.70;;;;;;;35.38;46.82;100345.16;5061607;28;65456;-39
2022/03/17 09:17:39;;;;;;;;;;;;;;;35.15;47.27;100360.00;5073221;28;69555;-39
2022/03/17 09:20:13;;;;;;;14.70;13.55;;;;;;;35.43;46.83;100356.09;5070065;28;66218;-39
2022/03/17 09:22:44;;;;;;;15.25;13.90;;;;;;;35.48;47.01;100347.94;5073754;28;70369;-40
2022/03/17 09:25:24;;;;;;;15.63;14.32;;;;;;;35.51;47.01;100350.16;5051850;28;65683;-38
2022/03/17 09:27:56;;;;;;;14.50;13.38;;;;;;;35.45;46.33;100334.84;5080736;28;70139;-40
2022/03/17 09:30:26;;;;;;;;;;;;;;;35.27;46.75;100351.63;5069480;28;65610;-39
2022/03/17 09:32:59;;;;;;;15.73;14.60;;;;;;;35.51;46.54;100347.41;5077286;28;69965;-39
2022/03/17 09:35:30;;;;;;;15.70;14.38;;;;;;;35.48;46.64;100333.50;5089674;27;66428;-39
2022/03/17 09:38:01;;;;;;;15.70;14.48;;;;;;;35.55;46.57;100347.69;5077072;28;69877;-38
2022/03/17 09:40:34;;;;;;;15.63;14.07;;;;;;;35.56;46.53;100355.66;5069835;28;65177;-39
2022/03/17 09:43:21;;;;;;;15.05;13.77;;;;;;;35.58;46.96;100348.03;5068565;27;70151;-39
2022/03/17 09:45:54;;;;;;;14.85;13.77;;;;;;;35.58;46.46;100352.69;5062011;27;66138;-38
2022/03/17 09:48:27;;;;;;;15.30;14.13;;;;;;;35.58;46.11;100350.78;5067534;27;69452;-39
2022/03/17 09:51:00;;;;;;;15.73;14.25;;;;;;;35.26;46.19;100295.47;5058653;27;66128;-39
2022/03/17 09:53:31;;;;;;;14.68;13.40;;;;;;;35.55;46.02;100348.53;5077444;27;69194;-40
2022/03/17 09:56:02;;;;;;;16.42;15.02;;;;;;;35.50;46.32;100340.31;5073275;27;64863;-39
2022/03/17 09:58:33;;;;;;;14.70;13.70;;;;;;;35.58;46.47;100353.50;5071798;27;70524;-41
2022/03/17 10:01:05;;;;;;;15.00;14.10;;;;;;;35.57;46.63;100351.84;5068641;27;66532;-40
2022/03/17 10:03:38;;;;;;;15.05;14.02;;;;;;;35.51;46.19;100352.88;5065534;27;70053;-39
2022/03/17 10:06:10;;;;;;;15.27;14.00;;;;;;;35.40;46.42;100334.00;5065135;28;65202;-40
2022/03/17 10:08:43;;;;;;;14.77;13.73;;;;;;;35.17;46.19;100291.59;5066640;27;69276;-40
2022/03/17 10:11:16;;;;;;;14.77;13.65;;;;;;;35.53;46.76;100358.88;5064193;28;66183;-39
2022/03/17 10:13:47;;;;;;;13.73;12.80;;;;;;;35.50;46.59;100358.59;5066237;27;69270;-39
2022/03/17 10:16:21;;;;;;;14.77;13.68;;;;;;;35.13;46.16;100292.13;5073600;28;66542;-38
2022/03/17 10:19:12;;;;;;;15.65;14.30;;;;;;;35.41;46.44;100352.84;5066148;28;67294;-39
2022/03/17 10:21:43;;;;;;;16.25;14.60;;;;;;;35.47;46.89;100349.03;5058974;28;65406;-39
2022/03/17 10:24:16;;;;;;;14.48;13.48;;;;;;;34.99;46.85;100269.09;5073761;28;70259;-39
2022/03/17 10:26:51;;;;;;;15.00;13.80;;;;;;;35.45;46.71;100351.22;5067171;28;65229;-39
2022/03/17 10:29:26;;;;;;;16.02;13.68;;;;;;;35.35;46.85;100332.06;5076981;28;70098;-40
2022/03/17 10:32:14;;;;;;;14.35;13.23;;;;;;;35.41;46.43;100350.09;5059785;28;65776;-39
2022/03/17 10:34:48;;;;;;;14.57;13.52;;;;;;;35.39;46.67;100351.44;5080941;27;69394;-39
2022/03/17 10:37:21;;;;;;;14.32;13.18;;;;;;;35.32;46.64;100343.50;5065868;27;66411;-39
2022/03/17 10:39:54;;;;;;;14.57;13.38;;;;;;;35.27;47.04;100335.28;5068213;27;70238;-38
2022/03/17 10:42:30;;;;;;;22.75;15.90;;;;;;;34.19;48.29;100227.34;5067310;27;65463;-39
2022/03/17 10:45:05;;;;;;;18.98;16.98;;;;;;;34.22;50.20;100282.09;5069763;27;69779;-39
2022/03/17 10:47:37;;;;;;;21.15;18.80;;;;;;;34.39;50.08;100347.31;5066066;27;66119;-39
2022/03/17 10:50:09;;;;;;;21.70;17.80;;;;;;;34.19;50.72;100352.56;5069791;27;70396;-39
2022/03/17 10:52:54;;;;;;;20.83;18.70;;;;;;;33.98;51.33;100357.72;5073996;28;64500;-39
2022/03/17 10:55:33;;;;;;;27.98;19.08;;;;;;;33.87;51.41;100355.16;5078421;27;70131;-38
2022/03/17 10:58:15;;;;;;;23.67;20.13;;;;;;;33.58;52.50;100337.09;5077019;28;66074;-38
2022/03/17 11:00:52;;;;;;;25.70;19.52;;;;;;;33.65;52.80;100363.28;5072512;28;69212;-39
2022/03/17 11:03:25;;;;;;;27.00;19.90;;;;;;;33.42;53.24;100321.63;5048162;28;66305;-38
2022/03/17 11:05:56;;;;;;;29.27;20.70;;;;;;;33.56;53.71;100360.19;5075042;28;70686;-38
2022/03/17 11:08:28;;;;;;;30.80;21.90;;;;;;;33.49;54.37;100368.50;5076290;28;65235;-39
2022/03/17 11:10:58;;;;;;;;;;;;;;;33.17;55.49;100371.00;5066993;28;70304;-40
2022/03/17 11:13:31;;;;;;;28.33;21.48;;;;;;;33.30;54.98;100359.81;5075451;27;66449;-38
2022/03/17 11:16:08;;;;;;;29.77;21.23;;;;;;;33.31;54.91;100366.88;5066671;27;70664;-39
2022/03/17 11:18:41;;;;;;;24.83;22.27;;;;;;;33.13;54.69;100356.28;5071872;28;66532;-39
2022/03/17 11:21:12;;;;;;;29.15;23.30;;;;;;;33.22;53.77;100381.97;5080843;28;70258;-41
2022/03/17 11:23:55;;;;;;;39.88;22.90;;;;;;;33.12;54.17;100376.34;5075429;28;65540;-39
2022/03/17 11:26:41;;;;;;;38.30;25.02;;;;;;;33.00;54.24;100372.91;5076357;28;69775;-38
2022/03/17 11:29:25;;;;;;;26.17;23.52;;;;;;;32.68;54.04;100322.66;5069811;28;65759;-38
2022/03/17 11:32:08;;;;;;;27.95;23.25;;;;;;;33.03;54.25;100396.88;5075030;28;70142;-39
2022/03/17 11:34:46;;;;;;;30.48;24.83;;;;;;;32.99;54.36;100392.94;5079414;27;66526;-38
2022/03/17 11:37:20;;;;;;;31.08;24.42;;;;;;;32.94;54.39;100399.16;5069263;28;69304;-39
2022/03/17 11:39:56;;;;;;;38.17;24.50;;;;;;;32.91;54.53;100397.75;5061249;28;65363;-38
2022/03/17 11:43:03;;;;;;;29.33;23.05;;;;;;;32.81;55.09;100394.84;5075712;27;70465;-39
2022/03/17 11:45:37;;;;;;;30.27;24.58;;;;;;;32.81;55.16;100408.41;5079886;27;65063;-39
2022/03/17 11:48:12;;;;;;;28.60;23.40;;;;;;;32.45;55.37;100350.72;5074304;28;70479;-39